sensor_id;sensor_type;location;lat;lon;timestamp;pressure;altitude;pressure_sealevel;temperature;humidity
69766;BME280;57039;48.014;21.384;2023-08-06T00:00:28;99264.66;;;22.97;100.00
69766;BME280;57039;48.014;21.384;2023-08-06T00:01:31;99272.53;;;23.12;100.00
69766;BME280;57039;48.014;21.384;2023-08-06T00:02:33;99266.84;;;23.22;100.00
69766;BME280;57039;48.014;21.384;2023-08-06T00:03:36;99269.75;;;23.27;100.00
69766;BME280;57039;48.014;21.384;2023-08-06T00:04:39;99272.62;;;23.26;100.00
69766;BME280;57039;48.014;21.384;2023-08-06T00:06:45;99270.75;;;23.19;100.00
69766;BME280;57039;48.014;21.384;2023-08-06T00:07:48;99274.63;;;23.17;100.00
69766;BME280;57039;48.014;21.384;2023-08-06T00:08:51;99269.03;;;23.12;100.00
69766;BME280;57039;48.014;21.384;2023-08-06T00:09:53;99271.09;;;23.10;100.00
69766;BME280;57039;48.014;21.384;2023-08-06T00:10:56;99276.37;;;23.03;100.00
69766;BME280;57039;48.014;21.384;2023-08-06T00:11:59;99273.38;;;23.13;100.00
69766;BME280;57039;48.014;21.384;2023-08-06T00:13:02;99276.22;;;23.05;100.00
69766;BME280;57039;48.014;21.384;2023-08-06T00:14:05;99275.44;;;23.11;100.00
69766;BME280;57039;48.014;21.384;2023-08-06T00:15:08;99276.25;;;23.11;100.00
69766;BME280;57039;48.014;21.384;2023-08-06T00:16:12;99273.16;;;23.08;100.00
69766;BME280;57039;48.014;21.384;2023-08-06T00:17:16;99270.19;;;22.96;100.00
69766;BME280;57039;48.014;21.384;2023-08-06T00:18:19;99271.50;;;23.07;100.00
69766;BME280;57039;48.014;21.384;2023-08-06T00:19:21;99266.75;;;23.09;100.00
69766;BME280;57039;48.014;21.384;2023-08-06T00:20:24;99268.66;;;23.15;100.00
69766;BME280;57039;48.014;21.384;2023-08-06T00:21:27;99261.50;;;23.22;100.00
69766;BME280;57039;48.014;21.384;2023-08-06T00:22:34;99261.69;;;23.20;100.00
69766;BME280;57039;48.014;21.384;2023-08-06T00:23:37;99257.94;;;23.15;100.00
69766;BME280;57039;48.014;21.384;2023-08-06T00:24:39;99268.03;;;23.13;100.00
69766;BME280;57039;48.014;21.384;2023-08-06T00:25:42;99260.03;;;23.19;100.00
69766;BME280;57039;48.014;21.384;2023-08-06T00:26:45;99260.44;;;23.16;100.00
69766;BME280;57039;48.014;21.384;2023-08-06T00:27:48;99252.59;;;23.15;100.00
69766;BME280;57039;48.014;21.384;2023-08-06T00:28:50;99258.97;;;23.14;100.00
69766;BME280;57039;48.014;21.384;2023-08-06T00:29:54;99260.44;;;23.16;100.00
69766;BME280;57039;48.014;21.384;2023-08-06T00:30:57;99259.63;;;23.16;100.00
69766;BME280;57039;48.014;21.384;2023-08-06T00:31:59;99255.50;;;23.20;100.00
69766;BME280;57039;48.014;21.384;2023-08-06T00:33:02;99249.91;;;23.15;100.00
69766;BME280;57039;48.014;21.384;2023-08-06T00:34:07;99252.41;;;23.16;100.00
69766;BME280;57039;48.014;21.384;2023-08-06T00:35:10;99247.63;;;23.12;100.00
69766;BME280;57039;48.014;21.384;2023-08-06T00:36:13;99251.53;;;23.09;100.00
69766;BME280;57039;48.014;21.384;2023-08-06T00:37:16;99247.59;;;23.05;100.00
69766;BME280;57039;48.014;21.384;2023-08-06T00:38:19;99251.88;;;22.99;100.00
69766;BME280;57039;48.014;21.384;2023-08-06T00:39:22;99249.62;;;23.03;100.00
69766;BME280;57039;48.014;21.384;2023-08-06T00:40:25;99247.16;;;23.01;100.00
69766;BME280;57039;48.014;21.384;2023-08-06T00:41:30;99248.31;;;22.92;100.00
69766;BME280;57039;48.014;21.384;2023-08-06T00:42:33;99244.56;;;22.87;100.00
69766;BME280;57039;48.014;21.384;2023-08-06T00:43:37;99242.28;;;22.84;100.00
69766;BME280;57039;48.014;21.384;2023-08-06T00:44:40;99241.06;;;22.86;100.00
69766;BME280;57039;48.014;21.384;2023-08-06T00:45:43;99240.88;;;22.88;100.00
69766;BME280;57039;48.014;21.384;2023-08-06T00:46:46;99238.16;;;22.81;100.00
69766;BME280;57039;48.014;21.384;2023-08-06T00:47:49;99235.72;;;22.86;100.00
69766;BME280;57039;48.014;21.384;2023-08-06T00:48:52;99225.59;;;22.82;100.00
69766;BME280;57039;48.014;21.384;2023-08-06T00:49:55;99226.41;;;22.82;100.00
69766;BME280;57039;48.014;21.384;2023-08-06T00:50:58;99222.50;;;22.78;100.00
69766;BME280;57039;48.014;21.384;2023-08-06T00:52:01;99122.19;;;22.04;100.00
69766;BME280;57039;48.014;21.384;2023-08-06T00:53:04;99220.59;;;22.72;100.00
69766;BME280;57039;48.014;21.384;2023-08-06T00:54:08;99219.00;;;22.77;100.00
69766;BME280;57039;48.014;21.384;2023-08-06T00:55:11;99223.91;;;22.74;100.00
69766;BME280;57039;48.014;21.384;2023-08-06T00:56:14;99225.94;;;22.72;100.00
69766;BME280;57039;48.014;21.384;2023-08-06T00:57:17;99214.13;;;22.60;100.00
69766;BME280;57039;48.014;21.384;2023-08-06T00:58:21;99217.25;;;22.63;100.00
69766;BME280;57039;48.014;21.384;2023-08-06T00:59:24;99220.69;;;22.57;100.00
69766;BME280;57039;48.014;21.384;2023-08-06T01:00:27;99217.19;;;22.56;100.00
69766;BME280;57039;48.014;21.384;2023-08-06T01:01:30;99214.72;;;22.55;100.00
69766;BME280;57039;48.014;21.384;2023-08-06T01:02:33;99216.31;;;22.49;100.00
69766;BME280;57039;48.014;21.384;2023-08-06T01:03:36;99218.22;;;22.55;100.00
69766;BME280;57039;48.014;21.384;2023-08-06T01:04:39;99220.53;;;22.59;100.00
69766;BME280;57039;48.014;21.384;2023-08-06T01:05:41;99220.25;;;22.53;100.00
69766;BME280;57039;48.014;21.384;2023-08-06T01:06:48;99209.34;;;22.55;100.00
69766;BME280;57039;48.014;21.384;2023-08-06T01:09:47;99212.03;;;22.55;100.00
69766;BME280;57039;48.014;21.384;2023-08-06T01:13:48;99198.34;;;22.65;100.00
69766;BME280;57039;48.014;21.384;2023-08-06T01:15:00;99197.56;;;22.71;100.00
69766;BME280;57039;48.014;21.384;2023-08-06T01:16:06;99191.38;;;22.70;100.00
69766;BME280;57039;48.014;21.384;2023-08-06T01:17:09;99188.22;;;22.60;100.00
69766;BME280;57039;48.014;21.384;2023-08-06T01:18:13;99183.28;;;22.57;100.00
69766;BME280;57039;48.014;21.384;2023-08-06T01:19:17;99186.16;;;22.55;100.00
69766;BME280;57039;48.014;21.384;2023-08-06T01:20:20;99180.59;;;22.57;100.00
69766;BME280;57039;48.014;21.384;2023-08-06T01:21:23;99183.91;;;22.59;100.00
69766;BME280;57039;48.014;21.384;2023-08-06T01:22:26;99175.06;;;22.59;100.00
69766;BME280;57039;48.014;21.384;2023-08-06T01:23:28;99179.00;;;22.63;100.00
69766;BME280;57039;48.014;21.384;2023-08-06T01:24:32;99178.13;;;22.55;100.00
69766;BME280;57039;48.014;21.384;2023-08-06T01:26:22;99181.84;;;22.61;100.00
69766;BME280;57039;48.014;21.384;2023-08-06T01:27:37;99180.81;;;22.55;100.00
69766;BME280;57039;48.014;21.384;2023-08-06T01:28:50;99187.00;;;22.63;100.00
69766;BME280;57039;48.014;21.384;2023-08-06T01:30:02;99185.37;;;22.62;100.00
69766;BME280;57039;48.014;21.384;2023-08-06T01:31:07;99179.34;;;22.53;100.00
69766;BME280;57039;48.014;21.384;2023-08-06T01:32:14;99179.22;;;22.40;100.00
69766;BME280;57039;48.014;21.384;2023-08-06T01:33:21;99177.59;;;22.39;100.00
69766;BME280;57039;48.014;21.384;2023-08-06T01:34:27;99177.94;;;22.29;100.00
69766;BME280;57039;48.014;21.384;2023-08-06T01:35:30;99183.66;;;22.26;100.00
69766;BME280;57039;48.014;21.384;2023-08-06T01:36:34;99175.63;;;22.26;100.00
69766;BME280;57039;48.014;21.384;2023-08-06T01:37:38;99181.38;;;22.23;100.00
69766;BME280;57039;48.014;21.384;2023-08-06T01:38:41;99177.28;;;22.27;100.00
69766;BME280;57039;48.014;21.384;2023-08-06T01:39:44;99177.47;;;22.25;100.00
69766;BME280;57039;48.014;21.384;2023-08-06T01:40:47;99181.97;;;22.25;100.00
69766;BME280;57039;48.014;21.384;2023-08-06T01:41:49;99177.22;;;22.20;100.00
69766;BME280;57039;48.014;21.384;2023-08-06T01:42:52;99181.94;;;22.18;100.00
69766;BME280;57039;48.014;21.384;2023-08-06T01:43:55;99176.94;;;22.15;100.00
69766;BME280;57039;48.014;21.384;2023-08-06T01:44:58;99177.44;;;22.04;100.00
69766;BME280;57039;48.014;21.384;2023-08-06T01:46:02;99174.59;;;22.05;100.00
69766;BME280;57039;48.014;21.384;2023-08-06T01:47:05;99172.38;;;22.09;100.00
69766;BME280;57039;48.014;21.384;2023-08-06T01:48:07;99176.25;;;22.06;100.00
69766;BME280;57039;48.014;21.384;2023-08-06T01:49:10;99173.00;;;22.11;100.00
69766;BME280;57039;48.014;21.384;2023-08-06T01:50:13;99173.44;;;22.15;100.00
69766;BME280;57039;48.014;21.384;2023-08-06T01:51:16;99173.19;;;22.09;100.00
69766;BME280;57039;48.014;21.384;2023-08-06T01:52:19;99160.56;;;22.18;100.00
69766;BME280;57039;48.014;21.384;2023-08-06T01:53:21;99148.03;;;22.19;100.00
69766;BME280;57039;48.014;21.384;2023-08-06T01:54:24;99155.66;;;22.22;100.00
69766;BME280;57039;48.014;21.384;2023-08-06T01:55:29;99157.41;;;22.15;100.00
69766;BME280;57039;48.014;21.384;2023-08-06T01:56:33;99161.00;;;22.22;100.00
69766;BME280;57039;48.014;21.384;2023-08-06T01:57:36;99154.87;;;22.28;100.00
69766;BME280;57039;48.014;21.384;2023-08-06T01:58:38;99152.47;;;22.33;100.00
69766;BME280;57039;48.014;21.384;2023-08-06T01:59:41;99160.03;;;22.29;100.00
69766;BME280;57039;48.014;21.384;2023-08-06T02:00:44;99160.66;;;22.31;100.00
69766;BME280;57039;48.014;21.384;2023-08-06T02:01:47;99156.97;;;22.32;100.00
69766;BME280;57039;48.014;21.384;2023-08-06T02:02:50;99163.16;;;22.33;100.00
69766;BME280;57039;48.014;21.384;2023-08-06T02:03:52;99163.66;;;22.22;100.00
69766;BME280;57039;48.014;21.384;2023-08-06T02:04:55;99163.72;;;22.07;100.00
69766;BME280;57039;48.014;21.384;2023-08-06T02:06:00;99169.31;;;22.12;100.00
69766;BME280;57039;48.014;21.384;2023-08-06T02:07:04;99173.13;;;22.03;100.00
69766;BME280;57039;48.014;21.384;2023-08-06T02:08:06;99171.50;;;22.02;100.00
69766;BME280;57039;48.014;21.384;2023-08-06T02:09:09;99164.47;;;22.01;100.00
69766;BME280;57039;48.014;21.384;2023-08-06T02:10:12;99169.81;;;22.01;100.00
69766;BME280;57039;48.014;21.384;2023-08-06T02:11:15;99168.81;;;22.02;100.00
69766;BME280;57039;48.014;21.384;2023-08-06T02:12:18;99170.41;;;21.96;100.00
69766;BME280;57039;48.014;21.384;2023-08-06T02:13:21;99172.00;;;21.91;100.00
69766;BME280;57039;48.014;21.384;2023-08-06T02:14:23;99131.72;;;21.49;100.00
69766;BME280;57039;48.014;21.384;2023-08-06T02:15:26;99175.88;;;21.88;100.00
69766;BME280;57039;48.014;21.384;2023-08-06T02:16:29;99180.56;;;21.86;100.00
69766;BME280;57039;48.014;21.384;2023-08-06T02:17:32;99178.66;;;21.80;100.00
69766;BME280;57039;48.014;21.384;2023-08-06T02:18:35;99185.66;;;21.81;100.00
69766;BME280;57039;48.014;21.384;2023-08-06T02:19:38;99181.09;;;21.75;100.00
69766;BME280;57039;48.014;21.384;2023-08-06T02:20:41;99176.63;;;21.82;100.00
69766;BME280;57039;48.014;21.384;2023-08-06T02:21:44;99182.34;;;21.79;100.00
69766;BME280;57039;48.014;21.384;2023-08-06T02:22:47;99178.72;;;21.86;100.00
69766;BME280;57039;48.014;21.384;2023-08-06T02:23:49;99168.03;;;21.86;100.00
69766;BME280;57039;48.014;21.384;2023-08-06T02:24:52;99155.91;;;21.84;100.00
69766;BME280;57039;48.014;21.384;2023-08-06T02:26:02;99166.22;;;21.87;100.00
69766;BME280;57039;48.014;21.384;2023-08-06T02:27:06;99167.41;;;21.84;100.00
69766;BME280;57039;48.014;21.384;2023-08-06T02:28:08;99155.53;;;21.87;100.00
69766;BME280;57039;48.014;21.384;2023-08-06T02:29:12;99147.25;;;21.82;100.00
69766;BME280;57039;48.014;21.384;2023-08-06T02:30:17;99154.44;;;21.81;100.00
69766;BME280;57039;48.014;21.384;2023-08-06T02:31:21;99151.34;;;21.78;100.00
69766;BME280;57039;48.014;21.384;2023-08-06T02:32:24;99157.28;;;21.80;100.00
69766;BME280;57039;48.014;21.384;2023-08-06T02:33:27;99165.06;;;21.75;100.00
69766;BME280;57039;48.014;21.384;2023-08-06T02:34:30;99157.88;;;21.75;100.00
69766;BME280;57039;48.014;21.384;2023-08-06T02:35:33;99163.66;;;21.79;100.00
69766;BME280;57039;48.014;21.384;2023-08-06T02:36:36;99162.63;;;21.80;100.00
69766;BME280;57039;48.014;21.384;2023-08-06T02:37:38;99168.81;;;21.80;100.00
69766;BME280;57039;48.014;21.384;2023-08-06T02:38:41;99172.44;;;21.73;100.00
69766;BME280;57039;48.014;21.384;2023-08-06T02:39:44;99165.41;;;21.72;100.00
69766;BME280;57039;48.014;21.384;2023-08-06T02:40:47;99172.50;;;21.79;100.00
69766;BME280;57039;48.014;21.384;2023-08-06T02:41:51;99155.44;;;21.59;100.00
69766;BME280;57039;48.014;21.384;2023-08-06T02:42:54;99183.19;;;21.79;100.00
69766;BME280;57039;48.014;21.384;2023-08-06T02:43:57;99178.09;;;21.84;100.00
69766;BME280;57039;48.014;21.384;2023-08-06T02:45:00;99180.34;;;21.81;100.00
69766;BME280;57039;48.014;21.384;2023-08-06T02:46:03;99179.47;;;21.80;100.00
69766;BME280;57039;48.014;21.384;2023-08-06T02:47:06;99183.69;;;21.89;100.00
69766;BME280;57039;48.014;21.384;2023-08-06T02:48:09;99178.44;;;21.96;100.00
69766;BME280;57039;48.014;21.384;2023-08-06T02:49:13;99172.81;;;21.91;100.00
69766;BME280;57039;48.014;21.384;2023-08-06T02:50:15;99165.31;;;22.01;100.00
69766;BME280;57039;48.014;21.384;2023-08-06T02:51:18;99164.38;;;21.87;100.00
69766;BME280;57039;48.014;21.384;2023-08-06T02:52:21;99156.03;;;21.97;100.00
69766;BME280;57039;48.014;21.384;2023-08-06T02:53:24;99158.31;;;22.00;100.00
69766;BME280;57039;48.014;21.384;2023-08-06T02:54:27;99139.03;;;21.83;100.00
69766;BME280;57039;48.014;21.384;2023-08-06T02:55:30;99160.94;;;21.94;100.00
69766;BME280;57039;48.014;21.384;2023-08-06T02:56:32;99165.56;;;21.85;100.00
69766;BME280;57039;48.014;21.384;2023-08-06T02:57:36;99173.69;;;21.77;100.00
69766;BME280;57039;48.014;21.384;2023-08-06T02:58:38;99175.38;;;21.78;100.00
69766;BME280;57039;48.014;21.384;2023-08-06T02:59:41;99175.16;;;21.58;100.00
69766;BME280;57039;48.014;21.384;2023-08-06T03:00:44;99174.53;;;21.41;100.00
69766;BME280;57039;48.014;21.384;2023-08-06T03:01:48;99182.38;;;21.42;100.00
69766;BME280;57039;48.014;21.384;2023-08-06T03:02:51;99177.13;;;21.19;100.00
69766;BME280;57039;48.014;21.384;2023-08-06T03:03:54;99189.78;;;21.32;100.00
69766;BME280;57039;48.014;21.384;2023-08-06T03:04:58;99182.47;;;21.19;100.00
69766;BME280;57039;48.014;21.384;2023-08-06T03:06:01;99182.09;;;21.23;100.00
69766;BME280;57039;48.014;21.384;2023-08-06T03:07:04;99180.06;;;21.25;100.00
69766;BME280;57039;48.014;21.384;2023-08-06T03:08:08;99171.03;;;21.26;100.00
69766;BME280;57039;48.014;21.384;2023-08-06T03:09:11;99160.47;;;21.17;100.00
69766;BME280;57039;48.014;21.384;2023-08-06T03:10:14;99160.00;;;21.14;100.00
69766;BME280;57039;48.014;21.384;2023-08-06T03:11:17;99178.59;;;21.22;100.00
69766;BME280;57039;48.014;21.384;2023-08-06T03:12:20;99166.66;;;21.03;100.00
69766;BME280;57039;48.014;21.384;2023-08-06T03:13:23;99187.25;;;21.09;100.00
69766;BME280;57039;48.014;21.384;2023-08-06T03:14:26;99194.69;;;20.99;100.00
69766;BME280;57039;48.014;21.384;2023-08-06T03:15:29;99189.09;;;20.94;100.00
69766;BME280;57039;48.014;21.384;2023-08-06T03:16:31;99189.94;;;20.94;100.00
69766;BME280;57039;48.014;21.384;2023-08-06T03:17:34;99189.72;;;20.81;100.00
69766;BME280;57039;48.014;21.384;2023-08-06T03:18:38;99192.75;;;20.93;100.00
69766;BME280;57039;48.014;21.384;2023-08-06T03:19:42;99166.03;;;20.86;100.00
69766;BME280;57039;48.014;21.384;2023-08-06T03:20:45;99177.50;;;21.02;100.00
69766;BME280;57039;48.014;21.384;2023-08-06T03:21:48;99171.72;;;20.98;100.00
69766;BME280;57039;48.014;21.384;2023-08-06T03:22:50;99173.00;;;20.87;100.00
69766;BME280;57039;48.014;21.384;2023-08-06T03:23:53;99169.87;;;20.98;100.00
69766;BME280;57039;48.014;21.384;2023-08-06T03:24:57;99169.22;;;20.82;100.00
69766;BME280;57039;48.014;21.384;2023-08-06T03:26:03;99174.00;;;20.86;100.00
69766;BME280;57039;48.014;21.384;2023-08-06T03:27:06;99185.22;;;20.82;100.00
69766;BME280;57039;48.014;21.384;2023-08-06T03:28:10;99182.09;;;20.78;100.00
69766;BME280;57039;48.014;21.384;2023-08-06T03:29:13;99178.06;;;20.82;100.00
69766;BME280;57039;48.014;21.384;2023-08-06T03:30:17;99178.25;;;20.81;100.00
69766;BME280;57039;48.014;21.384;2023-08-06T03:31:19;99163.16;;;20.88;100.00
69766;BME280;57039;48.014;21.384;2023-08-06T03:32:22;99163.88;;;20.82;100.00
69766;BME280;57039;48.014;21.384;2023-08-06T03:33:25;99158.66;;;20.73;100.00
69766;BME280;57039;48.014;21.384;2023-08-06T03:34:28;99164.53;;;20.84;100.00
69766;BME280;57039;48.014;21.384;2023-08-06T03:35:31;99162.25;;;20.81;100.00
69766;BME280;57039;48.014;21.384;2023-08-06T03:36:34;99166.38;;;20.68;100.00
69766;BME280;57039;48.014;21.384;2023-08-06T03:37:37;99169.44;;;20.42;100.00
69766;BME280;57039;48.014;21.384;2023-08-06T03:38:40;99167.31;;;20.38;100.00
69766;BME280;57039;48.014;21.384;2023-08-06T03:39:44;99176.13;;;20.38;100.00
69766;BME280;57039;48.014;21.384;2023-08-06T03:40:47;99175.12;;;20.39;100.00
69766;BME280;57039;48.014;21.384;2023-08-06T03:41:49;99181.16;;;20.33;100.00
69766;BME280;57039;48.014;21.384;2023-08-06T03:42:52;99178.22;;;20.28;100.00
69766;BME280;57039;48.014;21.384;2023-08-06T03:43:55;99175.03;;;20.33;100.00
69766;BME280;57039;48.014;21.384;2023-08-06T03:44:58;99173.19;;;20.33;100.00
69766;BME280;57039;48.014;21.384;2023-08-06T03:46:01;99173.38;;;20.32;100.00
69766;BME280;57039;48.014;21.384;2023-08-06T03:47:04;99166.38;;;20.30;100.00
69766;BME280;57039;48.014;21.384;2023-08-06T03:48:07;99182.66;;;20.36;100.00
69766;BME280;57039;48.014;21.384;2023-08-06T03:49:10;99180.81;;;20.36;100.00
69766;BME280;57039;48.014;21.384;2023-08-06T03:50:13;99170.06;;;20.29;100.00
69766;BME280;57039;48.014;21.384;2023-08-06T03:51:16;99189.62;;;20.37;100.00
69766;BME280;57039;48.014;21.384;2023-08-06T03:52:19;99177.37;;;20.27;100.00
69766;BME280;57039;48.014;21.384;2023-08-06T03:53:22;99177.03;;;20.30;100.00
69766;BME280;57039;48.014;21.384;2023-08-06T03:54:24;99176.09;;;20.23;100.00
69766;BME280;57039;48.014;21.384;2023-08-06T03:55:27;99174.56;;;20.29;100.00
69766;BME280;57039;48.014;21.384;2023-08-06T03:56:30;99183.19;;;20.31;100.00
69766;BME280;57039;48.014;21.384;2023-08-06T03:57:34;99176.81;;;20.17;100.00
69766;BME280;57039;48.014;21.384;2023-08-06T03:58:36;99132.37;;;19.95;100.00
69766;BME280;57039;48.014;21.384;2023-08-06T03:59:39;99173.59;;;20.22;100.00
69766;BME280;57039;48.014;21.384;2023-08-06T04:00:43;99169.56;;;20.11;100.00
69766;BME280;57039;48.014;21.384;2023-08-06T04:01:46;99166.81;;;20.19;100.00
69766;BME280;57039;48.014;21.384;2023-08-06T04:02:49;99170.25;;;20.05;100.00
69766;BME280;57039;48.014;21.384;2023-08-06T04:03:52;99167.34;;;20.15;100.00
69766;BME280;57039;48.014;21.384;2023-08-06T04:04:55;99162.13;;;20.21;100.00
69766;BME280;57039;48.014;21.384;2023-08-06T04:05:58;99164.84;;;20.13;100.00
69766;BME280;57039;48.014;21.384;2023-08-06T04:07:01;99164.59;;;20.08;100.00
69766;BME280;57039;48.014;21.384;2023-08-06T04:08:04;99131.41;;;19.73;100.00
69766;BME280;57039;48.014;21.384;2023-08-06T04:09:06;99122.28;;;19.67;100.00
69766;BME280;57039;48.014;21.384;2023-08-06T04:10:09;99173.19;;;19.95;100.00
69766;BME280;57039;48.014;21.384;2023-08-06T04:11:12;99154.25;;;19.90;100.00
69766;BME280;57039;48.014;21.384;2023-08-06T04:12:16;99160.69;;;19.96;100.00
69766;BME280;57039;48.014;21.384;2023-08-06T04:13:20;99163.72;;;19.93;100.00
69766;BME280;57039;48.014;21.384;2023-08-06T04:14:22;99167.44;;;19.83;100.00
69766;BME280;57039;48.014;21.384;2023-08-06T04:15:25;99167.94;;;19.79;100.00
69766;BME280;57039;48.014;21.384;2023-08-06T04:16:28;99162.97;;;19.76;100.00
69766;BME280;57039;48.014;21.384;2023-08-06T04:17:31;99162.87;;;19.69;100.00
69766;BME280;57039;48.014;21.384;2023-08-06T04:18:34;99153.88;;;19.70;100.00
69766;BME280;57039;48.014;21.384;2023-08-06T04:19:37;99154.06;;;19.69;100.00
69766;BME280;57039;48.014;21.384;2023-08-06T04:20:44;99159.03;;;19.64;100.00
69766;BME280;57039;48.014;21.384;2023-08-06T04:21:47;99164.72;;;19.69;100.00
69766;BME280;57039;48.014;21.384;2023-08-06T04:22:50;99167.53;;;19.59;100.00
69766;BME280;57039;48.014;21.384;2023-08-06T04:23:53;99172.28;;;19.49;100.00
69766;BME280;57039;48.014;21.384;2023-08-06T04:24:56;99114.63;;;19.10;100.00
69766;BME280;57039;48.014;21.384;2023-08-06T04:25:59;99167.63;;;19.51;100.00
69766;BME280;57039;48.014;21.384;2023-08-06T04:27:02;99131.16;;;19.28;100.00
69766;BME280;57039;48.014;21.384;2023-08-06T04:28:06;99176.94;;;19.47;100.00
69766;BME280;57039;48.014;21.384;2023-08-06T04:29:09;99180.28;;;19.41;100.00
69766;BME280;57039;48.014;21.384;2023-08-06T04:30:12;99180.94;;;19.43;100.00
69766;BME280;57039;48.014;21.384;2023-08-06T04:31:15;99182.44;;;19.45;100.00
69766;BME280;57039;48.014;21.384;2023-08-06T04:32:19;99146.87;;;19.38;100.00
69766;BME280;57039;48.014;21.384;2023-08-06T04:33:22;99172.19;;;19.65;100.00
69766;BME280;57039;48.014;21.384;2023-08-06T04:34:25;99159.75;;;19.57;100.00
69766;BME280;57039;48.014;21.384;2023-08-06T04:35:28;99150.66;;;19.44;100.00
69766;BME280;57039;48.014;21.384;2023-08-06T04:36:31;99162.81;;;19.46;100.00
69766;BME280;57039;48.014;21.384;2023-08-06T04:37:34;99097.97;;;19.16;100.00
69766;BME280;57039;48.014;21.384;2023-08-06T04:38:37;99158.94;;;19.57;100.00
69766;BME280;57039;48.014;21.384;2023-08-06T04:39:41;99154.59;;;19.56;100.00
69766;BME280;57039;48.014;21.384;2023-08-06T04:40:43;99095.88;;;19.34;100.00
69766;BME280;57039;48.014;21.384;2023-08-06T04:41:46;99134.41;;;19.70;100.00
69766;BME280;57039;48.014;21.384;2023-08-06T04:42:49;99148.91;;;19.67;100.00
69766;BME280;57039;48.014;21.384;2023-08-06T04:43:52;99155.59;;;19.55;100.00
69766;BME280;57039;48.014;21.384;2023-08-06T04:44:55;99149.72;;;19.68;100.00
69766;BME280;57039;48.014;21.384;2023-08-06T04:45:58;99149.88;;;19.74;100.00
69766;BME280;57039;48.014;21.384;2023-08-06T04:47:00;99148.25;;;19.65;100.00
69766;BME280;57039;48.014;21.384;2023-08-06T04:48:03;99155.25;;;19.66;100.00
69766;BME280;57039;48.014;21.384;2023-08-06T04:49:06;99155.25;;;19.58;100.00
69766;BME280;57039;48.014;21.384;2023-08-06T04:50:09;99160.94;;;19.55;100.00
69766;BME280;57039;48.014;21.384;2023-08-06T04:51:12;99159.28;;;19.54;100.00
69766;BME280;57039;48.014;21.384;2023-08-06T04:52:14;99152.28;;;19.53;100.00
69766;BME280;57039;48.014;21.384;2023-08-06T04:53:17;99162.28;;;19.51;100.00
69766;BME280;57039;48.014;21.384;2023-08-06T04:54:20;99157.13;;;19.49;100.00
69766;BME280;57039;48.014;21.384;2023-08-06T04:55:23;99161.63;;;19.49;100.00
69766;BME280;57039;48.014;21.384;2023-08-06T04:56:26;99133.41;;;19.39;100.00
69766;BME280;57039;48.014;21.384;2023-08-06T04:57:29;99156.78;;;19.52;100.00
69766;BME280;57039;48.014;21.384;2023-08-06T04:58:32;99119.69;;;19.28;100.00
69766;BME280;57039;48.014;21.384;2023-08-06T04:59:35;99163.50;;;19.40;100.00
69766;BME280;57039;48.014;21.384;2023-08-06T05:00:38;99161.88;;;19.31;100.00
69766;BME280;57039;48.014;21.384;2023-08-06T05:01:41;99121.59;;;19.11;100.00
69766;BME280;57039;48.014;21.384;2023-08-06T05:02:43;99142.81;;;19.27;100.00
69766;BME280;57039;48.014;21.384;2023-08-06T05:03:47;99109.31;;;19.10;100.00
69766;BME280;57039;48.014;21.384;2023-08-06T05:04:50;99150.41;;;19.38;100.00
69766;BME280;57039;48.014;21.384;2023-08-06T05:05:53;99146.53;;;19.41;100.00
69766;BME280;57039;48.014;21.384;2023-08-06T05:06:56;99144.91;;;19.32;100.00
69766;BME280;57039;48.014;21.384;2023-08-06T05:07:58;99138.28;;;19.36;100.00
69766;BME280;57039;48.014;21.384;2023-08-06T05:09:01;99132.06;;;19.44;100.00
69766;BME280;57039;48.014;21.384;2023-08-06T05:10:05;99111.81;;;19.34;100.00
69766;BME280;57039;48.014;21.384;2023-08-06T05:11:09;99109.47;;;19.39;100.00
69766;BME280;57039;48.014;21.384;2023-08-06T05:12:12;99121.72;;;19.49;100.00
69766;BME280;57039;48.014;21.384;2023-08-06T05:13:14;99124.75;;;19.46;100.00
69766;BME280;57039;48.014;21.384;2023-08-06T05:14:17;99096.13;;;19.16;100.00
69766;BME280;57039;48.014;21.384;2023-08-06T05:15:20;99133.22;;;19.18;100.00
69766;BME280;57039;48.014;21.384;2023-08-06T05:16:23;99099.84;;;19.07;100.00
69766;BME280;57039;48.014;21.384;2023-08-06T05:17:26;99131.53;;;19.17;100.00
69766;BME280;57039;48.014;21.384;2023-08-06T05:18:29;99147.09;;;19.28;100.00
69766;BME280;57039;48.014;21.384;2023-08-06T05:19:33;99163.03;;;19.36;100.00
69766;BME280;57039;48.014;21.384;2023-08-06T05:20:36;99156.06;;;19.35;100.00
69766;BME280;57039;48.014;21.384;2023-08-06T05:21:40;99111.66;;;19.05;100.00
69766;BME280;57039;48.014;21.384;2023-08-06T05:22:43;99111.66;;;19.05;100.00
69766;BME280;57039;48.014;21.384;2023-08-06T05:23:46;99144.44;;;19.28;100.00
69766;BME280;57039;48.014;21.384;2023-08-06T05:24:49;99124.44;;;19.09;100.00
69766;BME280;57039;48.014;21.384;2023-08-06T05:25:52;99150.66;;;19.21;100.00
69766;BME280;57039;48.014;21.384;2023-08-06T05:26:55;99144.88;;;19.09;100.00
69766;BME280;57039;48.014;21.384;2023-08-06T05:27:58;99128.75;;;19.10;100.00
69766;BME280;57039;48.014;21.384;2023-08-06T05:29:00;99157.06;;;19.26;100.00
69766;BME280;57039;48.014;21.384;2023-08-06T05:30:04;99148.34;;;19.18;100.00
69766;BME280;57039;48.014;21.384;2023-08-06T05:31:08;99111.53;;;18.98;100.00
69766;BME280;57039;48.014;21.384;2023-08-06T05:32:11;99136.78;;;19.33;100.00
69766;BME280;57039;48.014;21.384;2023-08-06T05:33:14;99133.09;;;19.34;100.00